sensor_id;sensor_type;location;lat;lon;timestamp;P1;durP1;ratioP1;P2;durP2;ratioP2
20462;SDS011;10390;53.566;9.980;2022-12-10T00:01:49;11.13;;;7.68;;
20462;SDS011;10390;53.566;9.980;2022-12-10T00:04:17;10.25;;;7.35;;
20462;SDS011;10390;53.566;9.980;2022-12-10T00:06:44;10.82;;;8.00;;
20462;SDS011;10390;53.566;9.980;2022-12-10T00:09:11;10.57;;;7.85;;
20462;SDS011;10390;53.566;9.980;2022-12-10T00:11:40;9.43;;;6.93;;
20462;SDS011;10390;53.566;9.980;2022-12-10T00:14:06;9.82;;;7.18;;
20462;SDS011;10390;53.566;9.980;2022-12-10T00:16:33;10.23;;;7.60;;
20462;SDS011;10390;53.566;9.980;2022-12-10T00:19:00;9.98;;;7.20;;
20462;SDS011;10390;53.566;9.980;2022-12-10T00:21:27;9.55;;;7.72;;
20462;SDS011;10390;53.566;9.980;2022-12-10T00:23:56;11.65;;;7.40;;
20462;SDS011;10390;53.566;9.980;2022-12-10T00:26:24;9.60;;;7.85;;
20462;SDS011;10390;53.566;9.980;2022-12-10T00:28:52;11.90;;;7.93;;
20462;SDS011;10390;53.566;9.980;2022-12-10T00:31:22;11.93;;;8.40;;
20462;SDS011;10390;53.566;9.980;2022-12-10T00:33:59;11.05;;;8.15;;
20462;SDS011;10390;53.566;9.980;2022-12-10T00:36:30;9.55;;;7.22;;
20462;SDS011;10390;53.566;9.980;2022-12-10T00:38:59;10.43;;;7.32;;
20462;SDS011;10390;53.566;9.980;2022-12-10T00:41:25;10.65;;;8.30;;
20462;SDS011;10390;53.566;9.980;2022-12-10T00:43:51;11.45;;;8.27;;
20462;SDS011;10390;53.566;9.980;2022-12-10T00:46:16;10.35;;;7.90;;
20462;SDS011;10390;53.566;9.980;2022-12-10T00:48:44;10.02;;;8.00;;
20462;SDS011;10390;53.566;9.980;2022-12-10T00:51:12;9.80;;;7.40;;
20462;SDS011;10390;53.566;9.980;2022-12-10T00:53:44;11.13;;;7.88;;
20462;SDS011;10390;53.566;9.980;2022-12-10T00:56:12;9.32;;;7.25;;
20462;SDS011;10390;53.566;9.980;2022-12-10T00:58:40;10.60;;;7.63;;
20462;SDS011;10390;53.566;9.980;2022-12-10T01:01:07;9.27;;;7.38;;
20462;SDS011;10390;53.566;9.980;2022-12-10T01:03:41;10.55;;;7.45;;
20462;SDS011;10390;53.566;9.980;2022-12-10T01:06:09;9.15;;;7.05;;
20462;SDS011;10390;53.566;9.980;2022-12-10T01:08:42;10.77;;;7.68;;
20462;SDS011;10390;53.566;9.980;2022-12-10T01:11:09;10.18;;;7.30;;
20462;SDS011;10390;53.566;9.980;2022-12-10T01:13:37;11.10;;;7.68;;
20462;SDS011;10390;53.566;9.980;2022-12-10T01:16:05;10.80;;;7.97;;
20462;SDS011;10390;53.566;9.980;2022-12-10T01:18:33;9.68;;;7.28;;
20462;SDS011;10390;53.566;9.980;2022-12-10T01:21:01;9.00;;;7.15;;
20462;SDS011;10390;53.566;9.980;2022-12-10T01:23:32;10.02;;;7.38;;
20462;SDS011;10390;53.566;9.980;2022-12-10T01:26:01;11.98;;;7.22;;
20462;SDS011;10390;53.566;9.980;2022-12-10T01:28:31;9.85;;;7.38;;
20462;SDS011;10390;53.566;9.980;2022-12-10T01:31:04;9.60;;;7.30;;
20462;SDS011;10390;53.566;9.980;2022-12-10T01:33:33;9.50;;;7.60;;
20462;SDS011;10390;53.566;9.980;2022-12-10T01:36:07;8.50;;;7.03;;
20462;SDS011;10390;53.566;9.980;2022-12-10T01:38:54;9.30;;;6.90;;
20462;SDS011;10390;53.566;9.980;2022-12-10T01:41:25;9.82;;;6.65;;
20462;SDS011;10390;53.566;9.980;2022-12-10T01:46:40;8.75;;;6.57;;
20462;SDS011;10390;53.566;9.980;2022-12-10T01:49:16;8.95;;;6.85;;
20462;SDS011;10390;53.566;9.980;2022-12-10T01:51:46;9.70;;;7.25;;
20462;SDS011;10390;53.566;9.980;2022-12-10T01:54:40;8.75;;;6.60;;
20462;SDS011;10390;53.566;9.980;2022-12-10T01:57:09;10.15;;;7.60;;
20462;SDS011;10390;53.566;9.980;2022-12-10T01:59:45;8.10;;;6.47;;
20462;SDS011;10390;53.566;9.980;2022-12-10T02:05:23;8.23;;;6.50;;
20462;SDS011;10390;53.566;9.980;2022-12-10T02:10:53;8.20;;;6.45;;
20462;SDS011;10390;53.566;9.980;2022-12-10T02:13:28;8.10;;;6.00;;
20462;SDS011;10390;53.566;9.980;2022-12-10T02:22:06;8.80;;;6.35;;
20462;SDS011;10390;53.566;9.980;2022-12-10T02:24:34;7.82;;;5.68;;
20462;SDS011;10390;53.566;9.980;2022-12-10T02:27:04;9.18;;;6.57;;
20462;SDS011;10390;53.566;9.980;2022-12-10T02:29:39;8.27;;;6.20;;
20462;SDS011;10390;53.566;9.980;2022-12-10T02:32:11;8.05;;;6.20;;
20462;SDS011;10390;53.566;9.980;2022-12-10T02:34:43;8.55;;;6.72;;
20462;SDS011;10390;53.566;9.980;2022-12-10T02:37:24;7.82;;;5.85;;
20462;SDS011;10390;53.566;9.980;2022-12-10T02:39:55;8.48;;;6.50;;
20462;SDS011;10390;53.566;9.980;2022-12-10T02:42:26;7.95;;;5.90;;
20462;SDS011;10390;53.566;9.980;2022-12-10T02:44:56;7.10;;;5.93;;
20462;SDS011;10390;53.566;9.980;2022-12-10T02:47:23;7.80;;;5.88;;
20462;SDS011;10390;53.566;9.980;2022-12-10T02:49:51;7.53;;;5.70;;
20462;SDS011;10390;53.566;9.980;2022-12-10T02:52:22;7.85;;;5.85;;
20462;SDS011;10390;53.566;9.980;2022-12-10T02:54:49;8.38;;;6.15;;
20462;SDS011;10390;53.566;9.980;2022-12-10T03:00:08;7.72;;;5.85;;
20462;SDS011;10390;53.566;9.980;2022-12-10T03:05:54;8.02;;;6.03;;
20462;SDS011;10390;53.566;9.980;2022-12-10T03:09:07;8.20;;;6.43;;
20462;SDS011;10390;53.566;9.980;2022-12-10T03:11:49;7.45;;;5.93;;
20462;SDS011;10390;53.566;9.980;2022-12-10T03:14:31;7.93;;;5.90;;
20462;SDS011;10390;53.566;9.980;2022-12-10T03:16:59;9.25;;;6.10;;
20462;SDS011;10390;53.566;9.980;2022-12-10T03:19:34;6.85;;;5.10;;
20462;SDS011;10390;53.566;9.980;2022-12-10T03:22:07;8.38;;;6.07;;
20462;SDS011;10390;53.566;9.980;2022-12-10T03:24:35;8.20;;;5.68;;
20462;SDS011;10390;53.566;9.980;2022-12-10T03:27:01;7.32;;;5.20;;
20462;SDS011;10390;53.566;9.980;2022-12-10T03:29:31;7.72;;;5.63;;
20462;SDS011;10390;53.566;9.980;2022-12-10T03:32:02;7.82;;;5.55;;
20462;SDS011;10390;53.566;9.980;2022-12-10T03:34:29;7.72;;;6.00;;
20462;SDS011;10390;53.566;9.980;2022-12-10T03:36:55;7.13;;;5.45;;
20462;SDS011;10390;53.566;9.980;2022-12-10T03:39:22;9.77;;;5.78;;
20462;SDS011;10390;53.566;9.980;2022-12-10T03:41:48;8.52;;;5.80;;
20462;SDS011;10390;53.566;9.980;2022-12-10T03:44:17;6.18;;;5.07;;
20462;SDS011;10390;53.566;9.980;2022-12-10T03:46:56;7.57;;;5.45;;
20462;SDS011;10390;53.566;9.980;2022-12-10T03:49:23;6.45;;;5.30;;
20462;SDS011;10390;53.566;9.980;2022-12-10T03:51:49;6.60;;;5.07;;
20462;SDS011;10390;53.566;9.980;2022-12-10T03:54:15;7.30;;;5.63;;
20462;SDS011;10390;53.566;9.980;2022-12-10T03:56:41;6.97;;;5.38;;
20462;SDS011;10390;53.566;9.980;2022-12-10T03:59:06;6.72;;;5.00;;
20462;SDS011;10390;53.566;9.980;2022-12-10T04:01:32;7.05;;;5.35;;
20462;SDS011;10390;53.566;9.980;2022-12-10T04:03:58;6.15;;;4.95;;
20462;SDS011;10390;53.566;9.980;2022-12-10T04:06:24;6.25;;;4.90;;
20462;SDS011;10390;53.566;9.980;2022-12-10T04:08:51;8.02;;;5.53;;
20462;SDS011;10390;53.566;9.980;2022-12-10T04:11:18;6.40;;;5.03;;
20462;SDS011;10390;53.566;9.980;2022-12-10T04:13:44;6.80;;;5.22;;
20462;SDS011;10390;53.566;9.980;2022-12-10T04:16:28;6.95;;;4.80;;
20462;SDS011;10390;53.566;9.980;2022-12-10T04:18:59;7.72;;;5.72;;
20462;SDS011;10390;53.566;9.980;2022-12-10T04:21:39;6.57;;;5.30;;
20462;SDS011;10390;53.566;9.980;2022-12-10T04:24:27;6.68;;;5.10;;
20462;SDS011;10390;53.566;9.980;2022-12-10T04:29:46;6.18;;;4.95;;
20462;SDS011;10390;53.566;9.980;2022-12-10T04:32:12;6.70;;;5.10;;
20462;SDS011;10390;53.566;9.980;2022-12-10T04:34:39;6.13;;;4.88;;
20462;SDS011;10390;53.566;9.980;2022-12-10T04:37:05;5.82;;;4.53;;
20462;SDS011;10390;53.566;9.980;2022-12-10T04:39:32;7.03;;;5.22;;
20462;SDS011;10390;53.566;9.980;2022-12-10T04:41:59;7.03;;;5.38;;
20462;SDS011;10390;53.566;9.980;2022-12-10T04:44:26;6.38;;;4.75;;
20462;SDS011;10390;53.566;9.980;2022-12-10T04:46:51;5.88;;;4.60;;
20462;SDS011;10390;53.566;9.980;2022-12-10T04:49:18;6.30;;;4.90;;
20462;SDS011;10390;53.566;9.980;2022-12-10T04:51:44;5.72;;;4.43;;
20462;SDS011;10390;53.566;9.980;2022-12-10T04:54:10;6.38;;;4.63;;
20462;SDS011;10390;53.566;9.980;2022-12-10T04:56:36;7.38;;;5.00;;
20462;SDS011;10390;53.566;9.980;2022-12-10T04:59:03;6.32;;;4.90;;
20462;SDS011;10390;53.566;9.980;2022-12-10T05:01:30;6.35;;;4.60;;
20462;SDS011;10390;53.566;9.980;2022-12-10T05:03:59;5.60;;;4.80;;
20462;SDS011;10390;53.566;9.980;2022-12-10T05:06:27;5.78;;;4.70;;
20462;SDS011;10390;53.566;9.980;2022-12-10T05:08:54;6.38;;;5.07;;
20462;SDS011;10390;53.566;9.980;2022-12-10T05:11:20;5.88;;;4.70;;
20462;SDS011;10390;53.566;9.980;2022-12-10T05:13:49;6.00;;;4.30;;
20462;SDS011;10390;53.566;9.980;2022-12-10T05:16:17;5.85;;;4.60;;
20462;SDS011;10390;53.566;9.980;2022-12-10T05:18:44;7.57;;;4.82;;
20462;SDS011;10390;53.566;9.980;2022-12-10T05:21:11;5.80;;;4.60;;
20462;SDS011;10390;53.566;9.980;2022-12-10T05:23:41;7.25;;;5.28;;
20462;SDS011;10390;53.566;9.980;2022-12-10T05:26:11;6.20;;;4.45;;
20462;SDS011;10390;53.566;9.980;2022-12-10T05:28:54;6.55;;;4.55;;
20462;SDS011;10390;53.566;9.980;2022-12-10T05:33:49;5.65;;;3.92;;
20462;SDS011;10390;53.566;9.980;2022-12-10T05:36:17;6.05;;;4.30;;
20462;SDS011;10390;53.566;9.980;2022-12-10T05:38:48;6.70;;;4.95;;
20462;SDS011;10390;53.566;9.980;2022-12-10T05:41:16;5.70;;;4.47;;
20462;SDS011;10390;53.566;9.980;2022-12-10T05:43:44;6.65;;;4.97;;
20462;SDS011;10390;53.566;9.980;2022-12-10T05:46:12;5.97;;;4.65;;
20462;SDS011;10390;53.566;9.980;2022-12-10T05:48:42;6.38;;;5.00;;
20462;SDS011;10390;53.566;9.980;2022-12-10T05:51:09;5.70;;;4.35;;
20462;SDS011;10390;53.566;9.980;2022-12-10T05:53:40;6.32;;;4.18;;
20462;SDS011;10390;53.566;9.980;2022-12-10T05:56:09;5.72;;;4.55;;
20462;SDS011;10390;53.566;9.980;2022-12-10T05:58:44;5.60;;;4.20;;
20462;SDS011;10390;53.566;9.980;2022-12-10T06:01:13;5.90;;;4.32;;
20462;SDS011;10390;53.566;9.980;2022-12-10T06:03:48;5.35;;;4.18;;
20462;SDS011;10390;53.566;9.980;2022-12-10T06:06:33;7.00;;;4.50;;
20462;SDS011;10390;53.566;9.980;2022-12-10T06:09:02;6.10;;;4.78;;
20462;SDS011;10390;53.566;9.980;2022-12-10T06:11:29;5.78;;;4.50;;
20462;SDS011;10390;53.566;9.980;2022-12-10T06:13:58;6.20;;;4.50;;
20462;SDS011;10390;53.566;9.980;2022-12-10T06:16:25;6.60;;;4.35;;
20462;SDS011;10390;53.566;9.980;2022-12-10T06:18:52;5.63;;;4.00;;
20462;SDS011;10390;53.566;9.980;2022-12-10T06:21:19;5.68;;;4.55;;
20462;SDS011;10390;53.566;9.980;2022-12-10T06:23:46;6.00;;;4.28;;
20462;SDS011;10390;53.566;9.980;2022-12-10T06:26:23;6.53;;;4.93;;
20462;SDS011;10390;53.566;9.980;2022-12-10T06:28:50;5.68;;;4.55;;
20462;SDS011;10390;53.566;9.980;2022-12-10T06:31:17;6.40;;;5.10;;
20462;SDS011;10390;53.566;9.980;2022-12-10T06:33:44;5.65;;;4.40;;
20462;SDS011;10390;53.566;9.980;2022-12-10T06:36:11;6.05;;;4.95;;
20462;SDS011;10390;53.566;9.980;2022-12-10T06:38:38;5.85;;;4.38;;
20462;SDS011;10390;53.566;9.980;2022-12-10T06:41:05;6.40;;;4.70;;
20462;SDS011;10390;53.566;9.980;2022-12-10T06:43:34;5.85;;;4.53;;
20462;SDS011;10390;53.566;9.980;2022-12-10T06:46:07;6.22;;;4.43;;
20462;SDS011;10390;53.566;9.980;2022-12-10T06:48:35;6.03;;;4.50;;
20462;SDS011;10390;53.566;9.980;2022-12-10T06:51:02;6.38;;;5.03;;
20462;SDS011;10390;53.566;9.980;2022-12-10T06:53:29;6.20;;;4.93;;
20462;SDS011;10390;53.566;9.980;2022-12-10T06:56:00;6.15;;;4.43;;
20462;SDS011;10390;53.566;9.980;2022-12-10T06:58:27;8.05;;;4.53;;
20462;SDS011;10390;53.566;9.980;2022-12-10T07:00:54;6.28;;;4.22;;
20462;SDS011;10390;53.566;9.980;2022-12-10T07:03:30;6.10;;;4.68;;
20462;SDS011;10390;53.566;9.980;2022-12-10T07:05:59;6.07;;;4.60;;
20462;SDS011;10390;53.566;9.980;2022-12-10T07:08:26;5.32;;;4.00;;
20462;SDS011;10390;53.566;9.980;2022-12-10T07:10:52;5.22;;;4.18;;
20462;SDS011;10390;53.566;9.980;2022-12-10T07:13:18;7.43;;;4.63;;
20462;SDS011;10390;53.566;9.980;2022-12-10T07:15:44;5.57;;;4.25;;
20462;SDS011;10390;53.566;9.980;2022-12-10T07:18:10;6.07;;;4.75;;
20462;SDS011;10390;53.566;9.980;2022-12-10T07:20:35;5.45;;;4.30;;
20462;SDS011;10390;53.566;9.980;2022-12-10T07:23:01;5.50;;;4.30;;
20462;SDS011;10390;53.566;9.980;2022-12-10T07:25:27;6.13;;;4.22;;
20462;SDS011;10390;53.566;9.980;2022-12-10T07:27:53;5.30;;;3.90;;
20462;SDS011;10390;53.566;9.980;2022-12-10T07:30:19;8.73;;;4.95;;
20462;SDS011;10390;53.566;9.980;2022-12-10T07:32:44;7.13;;;5.15;;
20462;SDS011;10390;53.566;9.980;2022-12-10T07:35:10;6.70;;;5.10;;
20462;SDS011;10390;53.566;9.980;2022-12-10T07:37:36;6.38;;;4.95;;
20462;SDS011;10390;53.566;9.980;2022-12-10T07:40:02;9.32;;;4.60;;
20462;SDS011;10390;53.566;9.980;2022-12-10T07:42:28;7.93;;;4.53;;
20462;SDS011;10390;53.566;9.980;2022-12-10T07:44:54;20.67;;;5.10;;
20462;SDS011;10390;53.566;9.980;2022-12-10T07:47:20;8.07;;;4.90;;
20462;SDS011;10390;53.566;9.980;2022-12-10T07:49:45;7.85;;;4.80;;
20462;SDS011;10390;53.566;9.980;2022-12-10T07:52:11;6.90;;;4.93;;
20462;SDS011;10390;53.566;9.980;2022-12-10T07:54:37;7.57;;;4.57;;
20462;SDS011;10390;53.566;9.980;2022-12-10T07:57:03;11.63;;;4.57;;
20462;SDS011;10390;53.566;9.980;2022-12-10T07:59:29;8.52;;;4.28;;
20462;SDS011;10390;53.566;9.980;2022-12-10T08:01:55;6.18;;;4.63;;
20462;SDS011;10390;53.566;9.980;2022-12-10T08:04:22;8.63;;;4.40;;
20462;SDS011;10390;53.566;9.980;2022-12-10T08:06:48;6.57;;;4.70;;
20462;SDS011;10390;53.566;9.980;2022-12-10T08:09:13;6.10;;;4.00;;
20462;SDS011;10390;53.566;9.980;2022-12-10T08:11:39;9.93;;;4.53;;
20462;SDS011;10390;53.566;9.980;2022-12-10T08:14:06;9.88;;;4.25;;
20462;SDS011;10390;53.566;9.980;2022-12-10T08:16:31;7.20;;;4.30;;
20462;SDS011;10390;53.566;9.980;2022-12-10T08:18:58;10.35;;;4.60;;
20462;SDS011;10390;53.566;9.980;2022-12-10T08:21:27;7.97;;;4.75;;
20462;SDS011;10390;53.566;9.980;2022-12-10T08:23:55;11.93;;;4.32;;
20462;SDS011;10390;53.566;9.980;2022-12-10T08:26:23;8.80;;;4.35;;
20462;SDS011;10390;53.566;9.980;2022-12-10T08:28:53;8.63;;;4.28;;
20462;SDS011;10390;53.566;9.980;2022-12-10T08:31:20;8.68;;;4.80;;
20462;SDS011;10390;53.566;9.980;2022-12-10T08:33:48;10.68;;;4.47;;
20462;SDS011;10390;53.566;9.980;2022-12-10T08:36:14;7.50;;;4.68;;
20462;SDS011;10390;53.566;9.980;2022-12-10T08:38:41;7.47;;;4.57;;
20462;SDS011;10390;53.566;9.980;2022-12-10T08:41:09;8.45;;;4.40;;
20462;SDS011;10390;53.566;9.980;2022-12-10T08:43:38;9.55;;;4.20;;
20462;SDS011;10390;53.566;9.980;2022-12-10T08:46:04;8.38;;;4.50;;
20462;SDS011;10390;53.566;9.980;2022-12-10T08:48:31;6.45;;;3.97;;
20462;SDS011;10390;53.566;9.980;2022-12-10T08:50:58;8.70;;;4.50;;
20462;SDS011;10390;53.566;9.980;2022-12-10T08:53:25;9.38;;;5.18;;
20462;SDS011;10390;53.566;9.980;2022-12-10T08:55:51;6.30;;;4.40;;
20462;SDS011;10390;53.566;9.980;2022-12-10T08:58:18;7.35;;;4.45;;
20462;SDS011;10390;53.566;9.980;2022-12-10T09:00:45;7.65;;;4.70;;
20462;SDS011;10390;53.566;9.980;2022-12-10T09:03:13;10.57;;;4.25;;
20462;SDS011;10390;53.566;9.980;2022-12-10T09:05:38;10.23;;;4.93;;
20462;SDS011;10390;53.566;9.980;2022-12-10T09:08:05;8.07;;;3.90;;
20462;SDS011;10390;53.566;9.980;2022-12-10T09:10:31;9.50;;;4.15;;
20462;SDS011;10390;53.566;9.980;2022-12-10T09:12:57;8.10;;;4.50;;
20462;SDS011;10390;53.566;9.980;2022-12-10T09:15:23;9.90;;;4.50;;
20462;SDS011;10390;53.566;9.980;2022-12-10T09:17:49;8.95;;;4.90;;
20462;SDS011;10390;53.566;9.980;2022-12-10T09:20:15;14.18;;;5.13;;
20462;SDS011;10390;53.566;9.980;2022-12-10T09:22:41;8.18;;;4.90;;
20462;SDS011;10390;53.566;9.980;2022-12-10T09:25:07;7.00;;;4.47;;
20462;SDS011;10390;53.566;9.980;2022-12-10T09:27:44;7.60;;;4.13;;
20462;SDS011;10390;53.566;9.980;2022-12-10T09:30:10;13.20;;;4.53;;
20462;SDS011;10390;53.566;9.980;2022-12-10T09:32:37;10.23;;;4.28;;
20462;SDS011;10390;53.566;9.980;2022-12-10T09:35:03;8.32;;;4.55;;
20462;SDS011;10390;53.566;9.980;2022-12-10T09:37:29;6.28;;;4.15;;
20462;SDS011;10390;53.566;9.980;2022-12-10T09:39:54;8.40;;;4.22;;
20462;SDS011;10390;53.566;9.980;2022-12-10T09:45:02;10.27;;;4.43;;
20462;SDS011;10390;53.566;9.980;2022-12-10T09:48:49;8.82;;;4.05;;
20462;SDS011;10390;53.566;9.980;2022-12-10T09:50:55;9.55;;;4.10;;
20462;SDS011;10390;53.566;9.980;2022-12-10T09:53:42;8.93;;;4.30;;
20462;SDS011;10390;53.566;9.980;2022-12-10T09:56:19;14.68;;;4.45;;
20462;SDS011;10390;53.566;9.980;2022-12-10T09:58:48;11.00;;;4.75;;
20462;SDS011;10390;53.566;9.980;2022-12-10T10:01:15;12.80;;;4.68;;
20462;SDS011;10390;53.566;9.980;2022-12-10T10:03:43;9.25;;;4.60;;
20462;SDS011;10390;53.566;9.980;2022-12-10T10:06:13;11.82;;;4.88;;
20462;SDS011;10390;53.566;9.980;2022-12-10T10:08:41;10.02;;;4.50;;
20462;SDS011;10390;53.566;9.980;2022-12-10T10:11:14;13.23;;;4.35;;
20462;SDS011;10390;53.566;9.980;2022-12-10T10:13:54;10.35;;;4.90;;
20462;SDS011;10390;53.566;9.980;2022-12-10T10:16:30;9.32;;;4.35;;
20462;SDS011;10390;53.566;9.980;2022-12-10T10:19:09;8.68;;;4.47;;
20462;SDS011;10390;53.566;9.980;2022-12-10T10:21:44;9.82;;;5.00;;
20462;SDS011;10390;53.566;9.980;2022-12-10T10:24:14;10.38;;;4.50;;
20462;SDS011;10390;53.566;9.980;2022-12-10T10:26:44;9.98;;;4.65;;
20462;SDS011;10390;53.566;9.980;2022-12-10T10:29:11;9.82;;;4.60;;
20462;SDS011;10390;53.566;9.980;2022-12-10T10:31:41;11.63;;;5.13;;
20462;SDS011;10390;53.566;9.980;2022-12-10T10:34:16;9.00;;;5.40;;
20462;SDS011;10390;53.566;9.980;2022-12-10T10:36:47;8.15;;;4.95;;
20462;SDS011;10390;53.566;9.980;2022-12-10T10:39:26;10.63;;;4.82;;
20462;SDS011;10390;53.566;9.980;2022-12-10T10:41:56;7.60;;;4.80;;
20462;SDS011;10390;53.566;9.980;2022-12-10T10:44:28;15.57;;;5.47;;
20462;SDS011;10390;53.566;9.980;2022-12-10T10:47:01;10.52;;;4.82;;
20462;SDS011;10390;53.566;9.980;2022-12-10T10:49:28;10.40;;;4.90;;
20462;SDS011;10390;53.566;9.980;2022-12-10T10:52:00;13.80;;;4.93;;
20462;SDS011;10390;53.566;9.980;2022-12-10T10:57:24;14.07;;;5.10;;
20462;SDS011;10390;53.566;9.980;2022-12-10T11:00:22;12.43;;;5.45;;
20462;SDS011;10390;53.566;9.980;2022-12-10T11:02:48;25.42;;;5.80;;
20462;SDS011;10390;53.566;9.980;2022-12-10T11:05:22;8.82;;;5.38;;
20462;SDS011;10390;53.566;9.980;2022-12-10T11:08:00;11.07;;;4.80;;
20462;SDS011;10390;53.566;9.980;2022-12-10T11:10:30;13.43;;;4.95;;
20462;SDS011;10390;53.566;9.980;2022-12-10T11:15:44;11.20;;;5.05;;
20462;SDS011;10390;53.566;9.980;2022-12-10T11:21:02;17.00;;;5.35;;
20462;SDS011;10390;53.566;9.980;2022-12-10T11:23:40;12.77;;;5.28;;
20462;SDS011;10390;53.566;9.980;2022-12-10T11:32:24;18.10;;;5.47;;
20462;SDS011;10390;53.566;9.980;2022-12-10T11:35:14;8.73;;;5.35;;
20462;SDS011;10390;53.566;9.980;2022-12-10T11:38:04;15.10;;;5.43;;
20462;SDS011;10390;53.566;9.980;2022-12-10T11:40:55;16.10;;;7.72;;
20462;SDS011;10390;53.566;9.980;2022-12-10T11:55:22;12.50;;;5.40;;
20462;SDS011;10390;53.566;9.980;2022-12-10T12:04:52;16.48;;;6.35;;
20462;SDS011;10390;53.566;9.980;2022-12-10T12:16:18;17.30;;;6.90;;
20462;SDS011;10390;53.566;9.980;2022-12-10T12:24:59;20.48;;;7.45;;
20462;SDS011;10390;53.566;9.980;2022-12-10T12:27:58;16.42;;;7.68;;
20462;SDS011;10390;53.566;9.980;2022-12-10T12:30:32;18.45;;;7.70;;
20462;SDS011;10390;53.566;9.980;2022-12-10T12:33:02;14.85;;;6.60;;
20462;SDS011;10390;53.566;9.980;2022-12-10T12:35:56;14.05;;;6.97;;
20462;SDS011;10390;53.566;9.980;2022-12-10T12:45:10;15.23;;;6.72;;
20462;SDS011;10390;53.566;9.980;2022-12-10T12:47:57;17.27;;;6.88;;
20462;SDS011;10390;53.566;9.980;2022-12-10T12:50:44;24.95;;;7.45;;
20462;SDS011;10390;53.566;9.980;2022-12-10T12:53:18;20.45;;;7.38;;
20462;SDS011;10390;53.566;9.980;2022-12-10T13:01:42;20.98;;;7.07;;
20462;SDS011;10390;53.566;9.980;2022-12-10T13:04:18;13.75;;;6.35;;
20462;SDS011;10390;53.566;9.980;2022-12-10T13:07:08;24.05;;;7.75;;
20462;SDS011;10390;53.566;9.980;2022-12-10T13:09:49;21.77;;;7.65;;
20462;SDS011;10390;53.566;9.980;2022-12-10T13:12:31;21.10;;;7.63;;
20462;SDS011;10390;53.566;9.980;2022-12-10T13:15:20;19.25;;;7.45;;
20462;SDS011;10390;53.566;9.980;2022-12-10T13:18:05;21.42;;;7.30;;
20462;SDS011;10390;53.566;9.980;2022-12-10T13:20:47;21.65;;;7.22;;
20462;SDS011;10390;53.566;9.980;2022-12-10T13:23:47;20.65;;;6.32;;
20462;SDS011;10390;53.566;9.980;2022-12-10T13:26:30;16.27;;;6.60;;
20462;SDS011;10390;53.566;9.980;2022-12-10T13:29:10;17.83;;;7.28;;
20462;SDS011;10390;53.566;9.980;2022-12-10T13:37:33;26.67;;;7.80;;
20462;SDS011;10390;53.566;9.980;2022-12-10T13:42:35;19.90;;;6.38;;
20462;SDS011;10390;53.566;9.980;2022-12-10T13:47:55;17.20;;;6.15;;
20462;SDS011;10390;53.566;9.980;2022-12-10T13:50:48;23.30;;;6.75;;
20462;SDS011;10390;53.566;9.980;2022-12-10T13:53:44;20.73;;;6.90;;
20462;SDS011;10390;53.566;9.980;2022-12-10T13:56:29;16.92;;;6.03;;
20462;SDS011;10390;53.566;9.980;2022-12-10T13:59:37;21.67;;;6.57;;
20462;SDS011;10390;53.566;9.980;2022-12-10T14:08:13;18.35;;;6.40;;
20462;SDS011;10390;53.566;9.980;2022-12-10T14:10:45;25.20;;;7.53;;
20462;SDS011;10390;53.566;9.980;2022-12-10T14:13:13;22.90;;;6.63;;
20462;SDS011;10390;53.566;9.980;2022-12-10T14:15:47;21.20;;;6.72;;
20462;SDS011;10390;53.566;9.980;2022-12-10T14:18:25;22.50;;;7.05;;
20462;SDS011;10390;53.566;9.980;2022-12-10T14:20:53;19.23;;;6.80;;
20462;SDS011;10390;53.566;9.980;2022-12-10T14:26:03;18.75;;;7.22;;
20462;SDS011;10390;53.566;9.980;2022-12-10T14:28:55;20.95;;;7.05;;
20462;SDS011;10390;53.566;9.980;2022-12-10T14:34:00;20.38;;;7.10;;
20462;SDS011;10390;53.566;9.980;2022-12-10T14:36:34;15.40;;;6.60;;
20462;SDS011;10390;53.566;9.980;2022-12-10T14:39:05;20.90;;;6.40;;
20462;SDS011;10390;53.566;9.980;2022-12-10T14:41:47;14.65;;;5.50;;
20462;SDS011;10390;53.566;9.980;2022-12-10T14:44:16;23.30;;;6.10;;
20462;SDS011;10390;53.566;9.980;2022-12-10T14:46:43;19.45;;;6.03;;
20462;SDS011;10390;53.566;9.980;2022-12-10T14:49:16;14.85;;;6.70;;
20462;SDS011;10390;53.566;9.980;2022-12-10T14:51:51;16.65;;;6.15;;
20462;SDS011;10390;53.566;9.980;2022-12-10T14:54:25;22.42;;;6.35;;
20462;SDS011;10390;53.566;9.980;2022-12-10T14:56:57;27.52;;;6.70;;
20462;SDS011;10390;53.566;9.980;2022-12-10T14:59:30;19.60;;;7.50;;
20462;SDS011;10390;53.566;9.980;2022-12-10T15:02:18;14.82;;;6.40;;
20462;SDS011;10390;53.566;9.980;2022-12-10T15:04:51;15.73;;;6.35;;
20462;SDS011;10390;53.566;9.980;2022-12-10T15:07:19;14.00;;;6.50;;
20462;SDS011;10390;53.566;9.980;2022-12-10T15:09:49;13.38;;;5.90;;
20462;SDS011;10390;53.566;9.980;2022-12-10T15:12:20;15.18;;;5.90;;
20462;SDS011;10390;53.566;9.980;2022-12-10T15:18:37;17.33;;;6.43;;
20462;SDS011;10390;53.566;9.980;2022-12-10T15:21:20;17.30;;;6.10;;
20462;SDS011;10390;53.566;9.980;2022-12-10T15:23:47;15.80;;;6.07;;
20462;SDS011;10390;53.566;9.980;2022-12-10T15:26:18;16.40;;;6.47;;
20462;SDS011;10390;53.566;9.980;2022-12-10T15:29:15;15.60;;;6.38;;
20462;SDS011;10390;53.566;9.980;2022-12-10T15:31:59;16.17;;;6.28;;
20462;SDS011;10390;53.566;9.980;2022-12-10T15:34:49;17.40;;;6.47;;
20462;SDS011;10390;53.566;9.980;2022-12-10T15:37:23;12.02;;;6.32;;
20462;SDS011;10390;53.566;9.980;2022-12-10T15:39:59;13.82;;;5.93;;
20462;SDS011;10390;53.566;9.980;2022-12-10T15:45:16;13.35;;;6.43;;
20462;SDS011;10390;53.566;9.980;2022-12-10T15:47:54;12.48;;;5.35;;
20462;SDS011;10390;53.566;9.980;2022-12-10T15:50:23;12.15;;;5.63;;
20462;SDS011;10390;53.566;9.980;2022-12-10T15:52:50;13.50;;;5.97;;
20462;SDS011;10390;53.566;9.980;2022-12-10T15:55:16;13.85;;;5.32;;
20462;SDS011;10390;53.566;9.980;2022-12-10T15:57:42;15.40;;;5.72;;
20462;SDS011;10390;53.566;9.980;2022-12-10T16:02:53;11.77;;;5.47;;
20462;SDS011;10390;53.566;9.980;2022-12-10T16:05:22;13.10;;;5.57;;
20462;SDS011;10390;53.566;9.980;2022-12-10T16:07:52;12.98;;;5.65;;
20462;SDS011;10390;53.566;9.980;2022-12-10T16:10:20;11.38;;;5.65;;
20462;SDS011;10390;53.566;9.980;2022-12-10T16:12:53;14.35;;;5.40;;
20462;SDS011;10390;53.566;9.980;2022-12-10T16:15:25;14.20;;;5.78;;
20462;SDS011;10390;53.566;9.980;2022-12-10T16:17:54;12.10;;;5.35;;
20462;SDS011;10390;53.566;9.980;2022-12-10T16:20:22;11.65;;;5.30;;
20462;SDS011;10390;53.566;9.980;2022-12-10T16:22:52;14.52;;;5.82;;
20462;SDS011;10390;53.566;9.980;2022-12-10T16:25:20;12.95;;;5.43;;
20462;SDS011;10390;53.566;9.980;2022-12-10T16:27:47;13.15;;;5.20;;
20462;SDS011;10390;53.566;9.980;2022-12-10T16:30:21;13.02;;;5.55;;
20462;SDS011;10390;53.566;9.980;2022-12-10T16:32:51;10.93;;;5.30;;
20462;SDS011;10390;53.566;9.980;2022-12-10T16:35:17;13.63;;;5.82;;
20462;SDS011;10390;53.566;9.980;2022-12-10T16:37:44;11.40;;;5.40;;
20462;SDS011;10390;53.566;9.980;2022-12-10T16:40:12;10.55;;;5.35;;
20462;SDS011;10390;53.566;9.980;2022-12-10T16:42:39;13.00;;;6.30;;
20462;SDS011;10390;53.566;9.980;2022-12-10T16:45:13;13.18;;;6.07;;
20462;SDS011;10390;53.566;9.980;2022-12-10T16:47:41;11.48;;;5.60;;
20462;SDS011;10390;53.566;9.980;2022-12-10T16:50:08;10.90;;;5.43;;
20462;SDS011;10390;53.566;9.980;2022-12-10T16:52:35;11.38;;;4.85;;
20462;SDS011;10390;53.566;9.980;2022-12-10T16:55:01;11.32;;;5.32;;
20462;SDS011;10390;53.566;9.980;2022-12-10T16:57:27;13.88;;;5.75;;
20462;SDS011;10390;53.566;9.980;2022-12-10T16:59:53;12.85;;;5.93;;
20462;SDS011;10390;53.566;9.980;2022-12-10T17:02:19;11.48;;;5.32;;
20462;SDS011;10390;53.566;9.980;2022-12-10T17:04:45;14.63;;;5.75;;
20462;SDS011;10390;53.566;9.980;2022-12-10T17:07:12;12.32;;;5.40;;
20462;SDS011;10390;53.566;9.980;2022-12-10T17:09:39;14.35;;;5.00;;